David M Fleming — WDE3731 — position and weather

sailwx.info

Track history (hours):
 
Tides and Currents Weather Stations Pressure Air Temp Water Temp Dewpoint Dewpoint Depression Visibility Wind Speed Wind Dir Waves Ship Positions

David M Fleming

Owner: ACL Transportation Services LLC, Jeffersonville, IN. More information available from US FCC via Universal Licensing System and Coast Guard Vessel Documentation Center.

Last reported at 2017-Dec-08 04:39 UTC. Time now 2017-Dec-14 00:42 UTC.
Position N 29°43' W 095°16'.

Length 16 m; draft 2.5 m.

Type: Tug. MMSI: 367343420.

Date/timePositionNaut miles runAvg speedWind from/ knotsBaromVisibWave heightAir tempDewpointWater temp
2017-Dec-08 04:39N 29°43' W 095°16'0 0.1
2017-Dec-08 04:30N 29°43' W 095°16'2 3.4
2017-Dec-08 03:51N 29°43' W 095°14'2 4.5
2017-Dec-08 03:28N 29°44' W 095°12'3 4.7
2017-Dec-08 02:49N 29°44' W 095°09'1 0.0
2017-Dec-07 06:39N 29°44' W 095°08'1 0.9
2017-Dec-07 05:36N 29°44' W 095°09'1 6.7
2017-Dec-07 05:30N 29°44' W 095°08'  
2017-Dec-04 04:56N 29°46' W 095°06'1 0.6
2017-Dec-04 03:25N 29°46' W 095°07'1 1.5
2017-Dec-04 02:47N 29°46' W 095°06'0 0.2
2017-Dec-04 02:14N 29°45' W 095°06'1 0.0
2017-Dec-03 05:52N 29°46' W 095°07'0 0.0
2017-Dec-03 05:24N 29°46' W 095°07'8 0.2
2017-Dec-01 20:13N 29°43' W 095°16'0 0.1
2017-Dec-01 20:00N 29°43' W 095°16'9 0.7
2017-Dec-01 06:45N 29°46' W 095°06'0 0.0
2017-Dec-01 06:21N 29°46' W 095°06'0 0.0
2017-Nov-30 10:49N 29°46' W 095°06'0 0.2
2017-Nov-30 10:25N 29°46' W 095°06'0 0.0
2017-Nov-30 09:40N 29°46' W 095°06'0 0.4
2017-Nov-30 09:22N 29°46' W 095°06'  
Track history (hours):
 
Tides and Currents Weather Stations Pressure Air Temp Water Temp Dewpoint Dewpoint Depression Visibility Wind Speed Wind Dir Waves Ship Positions

David M Fleming

Owner: ACL Transportation Services LLC, Jeffersonville, IN. More information available from US FCC via Universal Licensing System and Coast Guard Vessel Documentation Center.

Last reported at 2017-Dec-08 04:39 UTC. Time now 2017-Dec-14 00:42 UTC.
Position N 29°43' W 095°16'.

Length 16 m; draft 2.5 m.

Type: Tug. MMSI: 367343420.

Date/timePositionNaut miles runAvg speedWind from/ knotsBaromVisibWave heightAir tempDewpointWater temp
2017-Dec-08 04:39N 29°43' W 095°16'0 0.1
2017-Dec-08 04:30N 29°43' W 095°16'2 3.4
2017-Dec-08 03:51N 29°43' W 095°14'2 4.5
2017-Dec-08 03:28N 29°44' W 095°12'3 4.7
2017-Dec-08 02:49N 29°44' W 095°09'1 0.0
2017-Dec-07 06:39N 29°44' W 095°08'1 0.9
2017-Dec-07 05:36N 29°44' W 095°09'1 6.7
2017-Dec-07 05:30N 29°44' W 095°08'  
2017-Dec-04 04:56N 29°46' W 095°06'1 0.6
2017-Dec-04 03:25N 29°46' W 095°07'1 1.5
2017-Dec-04 02:47N 29°46' W 095°06'0 0.2
2017-Dec-04 02:14N 29°45' W 095°06'1 0.0
2017-Dec-03 05:52N 29°46' W 095°07'0 0.0
2017-Dec-03 05:24N 29°46' W 095°07'8 0.2
2017-Dec-01 20:13N 29°43' W 095°16'0 0.1
2017-Dec-01 20:00N 29°43' W 095°16'9 0.7
2017-Dec-01 06:45N 29°46' W 095°06'0 0.0
2017-Dec-01 06:21N 29°46' W 095°06'0 0.0
2017-Nov-30 10:49N 29°46' W 095°06'0 0.2
2017-Nov-30 10:25N 29°46' W 095°06'0 0.0
2017-Nov-30 09:40N 29°46' W 095°06'0 0.4
2017-Nov-30 09:22N 29°46' W 095°06'  

Dump ship's entire track history